sensor_id;sensor_type;location;lat;lon;timestamp;pressure;altitude;pressure_sealevel;temperature;humidity
62708;BME280;48769;51.624;5.886;2023-05-18T00:00:09;102603.47;;;8.57;82.48
62708;BME280;48769;51.624;5.886;2023-05-18T00:02:36;102610.56;;;8.55;82.92
62708;BME280;48769;51.624;5.886;2023-05-18T00:05:01;102605.28;;;8.55;82.77
62708;BME280;48769;51.624;5.886;2023-05-18T00:07:27;102608.84;;;8.51;83.06
62708;BME280;48769;51.624;5.886;2023-05-18T00:09:58;102619.28;;;8.57;83.34
62708;BME280;48769;51.624;5.886;2023-05-18T00:12:23;102613.97;;;8.60;82.92
62708;BME280;48769;51.624;5.886;2023-05-18T00:14:48;102606.97;;;8.58;83.21
62708;BME280;48769;51.624;5.886;2023-05-18T00:17:14;102609.66;;;8.56;83.30
62708;BME280;48769;51.624;5.886;2023-05-18T00:19:40;102611.41;;;8.56;83.04
62708;BME280;48769;51.624;5.886;2023-05-18T00:22:05;102607.91;;;8.54;83.38
62708;BME280;48769;51.624;5.886;2023-05-18T00:24:31;102613.28;;;8.48;83.19
62708;BME280;48769;51.624;5.886;2023-05-18T00:26:57;102610.72;;;8.43;83.57
62708;BME280;48769;51.624;5.886;2023-05-18T00:29:22;102610.72;;;8.43;83.52
62708;BME280;48769;51.624;5.886;2023-05-18T00:31:47;102607.19;;;8.44;83.31
62708;BME280;48769;51.624;5.886;2023-05-18T00:34:14;102608.06;;;8.45;84.02
62708;BME280;48769;51.624;5.886;2023-05-18T00:36:40;102613.34;;;8.43;83.93
62708;BME280;48769;51.624;5.886;2023-05-18T00:39:06;102616.91;;;8.42;83.92
62708;BME280;48769;51.624;5.886;2023-05-18T00:41:33;102617.75;;;8.41;84.08
62708;BME280;48769;51.624;5.886;2023-05-18T00:43:58;102620.44;;;8.38;83.89
62708;BME280;48769;51.624;5.886;2023-05-18T00:46:26;102620.47;;;8.33;84.35
62708;BME280;48769;51.624;5.886;2023-05-18T00:48:52;102617.81;;;8.35;84.78
62708;BME280;48769;51.624;5.886;2023-05-18T00:51:19;102624.03;;;8.31;84.33
62708;BME280;48769;51.624;5.886;2023-05-18T00:53:45;102628.47;;;8.29;84.50
62708;BME280;48769;51.624;5.886;2023-05-18T00:56:11;102625.88;;;8.24;84.66
62708;BME280;48769;51.624;5.886;2023-05-18T00:58:37;102625.00;;;8.24;84.73
62708;BME280;48769;51.624;5.886;2023-05-18T01:01:03;102621.53;;;8.18;85.03
62708;BME280;48769;51.624;5.886;2023-05-18T01:03:31;102620.72;;;8.16;85.19
62708;BME280;48769;51.624;5.886;2023-05-18T01:05:57;102622.47;;;8.16;85.41
62708;BME280;48769;51.624;5.886;2023-05-18T01:08:26;102618.94;;;8.15;85.22
62708;BME280;48769;51.624;5.886;2023-05-18T01:11:24;102621.69;;;8.09;85.35
62708;BME280;48769;51.624;5.886;2023-05-18T01:14:03;102627.88;;;8.04;85.45
62708;BME280;48769;51.624;5.886;2023-05-18T01:16:35;102625.28;;;8.01;86.06
62708;BME280;48769;51.624;5.886;2023-05-18T01:22:10;102625.34;;;7.96;86.36
62708;BME280;48769;51.624;5.886;2023-05-18T01:24:51;102630.59;;;7.96;86.26
62708;BME280;48769;51.624;5.886;2023-05-18T01:27:20;102625.44;;;7.90;85.76
62708;BME280;48769;51.624;5.886;2023-05-18T01:29:48;102625.44;;;7.90;86.06
62708;BME280;48769;51.624;5.886;2023-05-18T01:32:17;102629.78;;;7.89;86.44
62708;BME280;48769;51.624;5.886;2023-05-18T01:34:43;102626.34;;;7.87;86.83
62708;BME280;48769;51.624;5.886;2023-05-18T01:37:09;102629.91;;;7.82;87.21
62708;BME280;48769;51.624;5.886;2023-05-18T01:39:34;102625.56;;;7.78;87.22
62708;BME280;48769;51.624;5.886;2023-05-18T01:42:06;102624.66;;;7.79;87.27
62708;BME280;48769;51.624;5.886;2023-05-18T01:44:46;102624.72;;;7.72;87.75
62708;BME280;48769;51.624;5.886;2023-05-18T01:47:15;102627.38;;;7.74;88.33
62708;BME280;48769;51.624;5.886;2023-05-18T01:49:55;102629.13;;;7.73;88.37
62708;BME280;48769;51.624;5.886;2023-05-18T01:52:29;102632.66;;;7.69;87.84
62708;BME280;48769;51.624;5.886;2023-05-18T01:55:00;102630.09;;;7.63;88.25
62708;BME280;48769;51.624;5.886;2023-05-18T01:57:28;102631.00;;;7.59;88.85
62708;BME280;48769;51.624;5.886;2023-05-18T01:59:56;102635.50;;;7.51;89.64
62708;BME280;48769;51.624;5.886;2023-05-18T02:02:25;102628.44;;;7.53;89.42
62708;BME280;48769;51.624;5.886;2023-05-18T02:04:51;102627.59;;;7.54;89.57
62708;BME280;48769;51.624;5.886;2023-05-18T02:07:16;102630.28;;;7.46;89.25
62708;BME280;48769;51.624;5.886;2023-05-18T02:09:41;102635.56;;;7.45;89.59
62708;BME280;48769;51.624;5.886;2023-05-18T02:12:08;102632.97;;;7.42;89.78
62708;BME280;48769;51.624;5.886;2023-05-18T02:14:34;102631.16;;;7.44;89.85
62708;BME280;48769;51.624;5.886;2023-05-18T02:16:59;102628.53;;;7.44;90.04
62708;BME280;48769;51.624;5.886;2023-05-18T02:19:25;102638.25;;;7.39;89.93
62708;BME280;48769;51.624;5.886;2023-05-18T02:21:50;102629.56;;;7.28;90.50
62708;BME280;48769;51.624;5.886;2023-05-18T02:24:15;102621.75;;;7.21;90.71
62708;BME280;48769;51.624;5.886;2023-05-18T02:26:44;102627.91;;;7.17;91.35
62708;BME280;48769;51.624;5.886;2023-05-18T02:29:09;102626.19;;;7.16;91.30
62708;BME280;48769;51.624;5.886;2023-05-18T02:31:39;102619.19;;;7.15;91.77
62708;BME280;48769;51.624;5.886;2023-05-18T02:34:05;102620.06;;;7.16;91.48
62708;BME280;48769;51.624;5.886;2023-05-18T02:36:31;102617.41;;;7.14;91.85
62708;BME280;48769;51.624;5.886;2023-05-18T02:39:02;102615.72;;;7.12;91.80
62708;BME280;48769;51.624;5.886;2023-05-18T02:41:28;102622.72;;;7.10;92.28
62708;BME280;48769;51.624;5.886;2023-05-18T02:43:54;102614.81;;;7.11;92.42
62708;BME280;48769;51.624;5.886;2023-05-18T02:46:19;102615.72;;;7.10;92.69
62708;BME280;48769;51.624;5.886;2023-05-18T02:48:45;102619.25;;;7.09;93.03
62708;BME280;48769;51.624;5.886;2023-05-18T02:51:11;102607.84;;;7.09;92.87
62708;BME280;48769;51.624;5.886;2023-05-18T02:53:36;102614.88;;;7.07;92.83
62708;BME280;48769;51.624;5.886;2023-05-18T02:56:01;102612.25;;;7.05;93.03
62708;BME280;48769;51.624;5.886;2023-05-18T02:58:28;102607.94;;;6.99;94.38
62708;BME280;48769;51.624;5.886;2023-05-18T03:00:53;102614.03;;;7.03;94.66
62708;BME280;48769;51.624;5.886;2023-05-18T03:03:23;102607.88;;;7.06;94.44
62708;BME280;48769;51.624;5.886;2023-05-18T03:05:50;102608.75;;;7.06;93.98
62708;BME280;48769;51.624;5.886;2023-05-18T03:08:20;102607.84;;;7.07;93.35
62708;BME280;48769;51.624;5.886;2023-05-18T03:10:47;102607.09;;;6.96;93.82
62708;BME280;48769;51.624;5.886;2023-05-18T03:13:13;102616.63;;;7.05;93.71
62708;BME280;48769;51.624;5.886;2023-05-18T03:15:39;102615.75;;;7.04;93.47
62708;BME280;48769;51.624;5.886;2023-05-18T03:18:04;102613.97;;;7.09;92.97
62708;BME280;48769;51.624;5.886;2023-05-18T03:20:30;102615.75;;;7.09;93.94
62708;BME280;48769;51.624;5.886;2023-05-18T03:22:56;102613.97;;;7.09;93.95
62708;BME280;48769;51.624;5.886;2023-05-18T03:25:21;102613.94;;;7.14;94.32
62708;BME280;48769;51.624;5.886;2023-05-18T03:27:49;102613.03;;;7.15;92.98
62708;BME280;48769;51.624;5.886;2023-05-18T03:30:15;102602.56;;;7.10;93.45
62708;BME280;48769;51.624;5.886;2023-05-18T03:32:41;102613.97;;;7.09;93.14
62708;BME280;48769;51.624;5.886;2023-05-18T03:35:06;102608.72;;;7.09;93.22
62708;BME280;48769;51.624;5.886;2023-05-18T03:37:32;102608.72;;;7.08;92.87
62708;BME280;48769;51.624;5.886;2023-05-18T03:39:59;102614.00;;;7.06;93.13
62708;BME280;48769;51.624;5.886;2023-05-18T03:42:24;102605.31;;;6.95;93.69
62708;BME280;48769;51.624;5.886;2023-05-18T03:44:50;102608.00;;;6.89;93.57
62708;BME280;48769;51.624;5.886;2023-05-18T03:47:15;102611.50;;;6.91;93.93
62708;BME280;48769;51.624;5.886;2023-05-18T03:49:41;102615.00;;;6.91;94.12
62708;BME280;48769;51.624;5.886;2023-05-18T03:52:07;102610.63;;;6.89;94.28
62708;BME280;48769;51.624;5.886;2023-05-18T03:54:32;102611.50;;;6.88;94.86
62708;BME280;48769;51.624;5.886;2023-05-18T03:56:58;102614.16;;;6.89;95.19
62708;BME280;48769;51.624;5.886;2023-05-18T03:59:23;102617.63;;;6.93;94.63
62708;BME280;48769;51.624;5.886;2023-05-18T04:01:49;102617.63;;;6.91;94.75
62708;BME280;48769;51.624;5.886;2023-05-18T04:04:18;102614.16;;;6.88;95.05
62708;BME280;48769;51.624;5.886;2023-05-18T04:06:48;102616.75;;;6.91;94.84
62708;BME280;48769;51.624;5.886;2023-05-18T04:09:16;102624.59;;;6.94;94.78
62708;BME280;48769;51.624;5.886;2023-05-18T04:11:43;102620.22;;;6.94;95.47
62708;BME280;48769;51.624;5.886;2023-05-18T04:14:08;102621.09;;;6.92;95.58
62708;BME280;48769;51.624;5.886;2023-05-18T04:16:34;102627.25;;;6.94;95.18
62708;BME280;48769;51.624;5.886;2023-05-18T04:19:00;102622.84;;;6.96;95.39
62708;BME280;48769;51.624;5.886;2023-05-18T04:21:27;102630.66;;;7.03;95.45
62708;BME280;48769;51.624;5.886;2023-05-18T04:23:59;102635.88;;;7.05;95.50
62708;BME280;48769;51.624;5.886;2023-05-18T04:26:27;102628.84;;;7.13;95.43
62708;BME280;48769;51.624;5.886;2023-05-18T04:28:52;102641.03;;;7.22;94.94
62708;BME280;48769;51.624;5.886;2023-05-18T04:31:24;102645.34;;;7.29;94.49
62708;BME280;48769;51.624;5.886;2023-05-18T04:33:50;102641.84;;;7.29;94.04
62708;BME280;48769;51.624;5.886;2023-05-18T04:36:16;102643.56;;;7.31;94.40
62708;BME280;48769;51.624;5.886;2023-05-18T04:38:44;102644.34;;;7.41;93.47
62708;BME280;48769;51.624;5.886;2023-05-18T04:41:09;102651.34;;;7.43;93.60
62708;BME280;48769;51.624;5.886;2023-05-18T04:43:34;102650.41;;;7.49;93.18
62708;BME280;48769;51.624;5.886;2023-05-18T04:46:00;102647.72;;;7.55;92.80
62708;BME280;48769;51.624;5.886;2023-05-18T04:48:26;102652.06;;;7.59;92.89
62708;BME280;48769;51.624;5.886;2023-05-18T04:50:53;102651.03;;;7.74;92.22
62708;BME280;48769;51.624;5.886;2023-05-18T04:53:20;102654.41;;;7.85;92.07
62708;BME280;48769;51.624;5.886;2023-05-18T04:55:49;102649.94;;;7.92;91.39
62708;BME280;48769;51.624;5.886;2023-05-18T04:58:15;102656.78;;;8.08;90.92
62708;BME280;48769;51.624;5.886;2023-05-18T05:00:41;102643.50;;;8.17;89.95
62708;BME280;48769;51.624;5.886;2023-05-18T05:03:07;102652.88;;;8.43;88.53
62708;BME280;48769;51.624;5.886;2023-05-18T05:05:33;102648.94;;;8.70;86.86
62708;BME280;48769;51.624;5.886;2023-05-18T05:07:58;102649.41;;;8.97;85.77
62708;BME280;48769;51.624;5.886;2023-05-18T05:10:23;102644.56;;;9.25;83.69
62708;BME280;48769;51.624;5.886;2023-05-18T05:12:49;102649.63;;;9.37;82.97
62708;BME280;48769;51.624;5.886;2023-05-18T05:15:15;102644.38;;;9.35;82.26
62708;BME280;48769;51.624;5.886;2023-05-18T05:17:41;102646.16;;;9.35;81.89
62708;BME280;48769;51.624;5.886;2023-05-18T05:20:07;102650.03;;;9.64;80.90
62708;BME280;48769;51.624;5.886;2023-05-18T05:22:32;102649.44;;;9.94;79.52
62708;BME280;48769;51.624;5.886;2023-05-18T05:24:58;102652.34;;;9.82;78.87
62708;BME280;48769;51.624;5.886;2023-05-18T05:27:23;102647.00;;;9.85;78.64
62708;BME280;48769;51.624;5.886;2023-05-18T05:29:50;102645.13;;;9.90;78.23
62708;BME280;48769;51.624;5.886;2023-05-18T05:32:16;102649.38;;;9.97;78.34
62708;BME280;48769;51.624;5.886;2023-05-18T05:34:41;102650.34;;;9.93;78.07
62708;BME280;48769;51.624;5.886;2023-05-18T05:37:12;102646.31;;;10.19;77.48
62708;BME280;48769;51.624;5.886;2023-05-18T05:39:38;102640.16;;;10.17;77.48
62708;BME280;48769;51.624;5.886;2023-05-18T05:42:05;102652.03;;;10.39;76.85
62708;BME280;48769;51.624;5.886;2023-05-18T05:44:31;102644.25;;;10.33;75.02
62708;BME280;48769;51.624;5.886;2023-05-18T05:46:56;102648.53;;;10.39;75.46
62708;BME280;48769;51.624;5.886;2023-05-18T05:49:22;102642.41;;;10.38;74.25
62708;BME280;48769;51.624;5.886;2023-05-18T05:51:47;102641.09;;;10.58;74.52
62708;BME280;48769;51.624;5.886;2023-05-18T05:54:13;102644.81;;;10.86;73.59
62708;BME280;48769;51.624;5.886;2023-05-18T05:56:38;102636.69;;;10.95;73.39
62708;BME280;48769;51.624;5.886;2023-05-18T05:59:11;102638.47;;;11.29;71.75
62708;BME280;48769;51.624;5.886;2023-05-18T06:01:36;102631.53;;;11.25;70.79
62708;BME280;48769;51.624;5.886;2023-05-18T06:04:02;102640.09;;;11.35;70.78
62708;BME280;48769;51.624;5.886;2023-05-18T06:06:30;102641.75;;;11.37;69.94
62708;BME280;48769;51.624;5.886;2023-05-18T06:08:56;102639.66;;;11.50;68.83
62708;BME280;48769;51.624;5.886;2023-05-18T06:11:21;102636.88;;;11.22;68.78
62708;BME280;48769;51.624;5.886;2023-05-18T06:13:46;102635.53;;;11.06;70.06
62708;BME280;48769;51.624;5.886;2023-05-18T06:16:12;102632.91;;;11.04;70.04
62708;BME280;48769;51.624;5.886;2023-05-18T06:18:38;102632.53;;;11.19;69.93
62708;BME280;48769;51.624;5.886;2023-05-18T06:21:03;102636.31;;;11.43;69.98
62708;BME280;48769;51.624;5.886;2023-05-18T06:23:31;102635.75;;;11.31;69.26
62708;BME280;48769;51.624;5.886;2023-05-18T06:25:57;102640.75;;;11.09;70.32
62708;BME280;48769;51.624;5.886;2023-05-18T06:28:22;102642.69;;;11.00;69.82
62708;BME280;48769;51.624;5.886;2023-05-18T06:30:47;102646.13;;;11.06;70.13
62708;BME280;48769;51.624;5.886;2023-05-18T06:33:13;102637.56;;;10.94;69.63
62708;BME280;48769;51.624;5.886;2023-05-18T06:35:38;102637.97;;;11.15;69.44
62708;BME280;48769;51.624;5.886;2023-05-18T06:38:04;102645.41;;;11.33;69.44
62708;BME280;48769;51.624;5.886;2023-05-18T06:40:29;102644.44;;;11.70;69.35
62708;BME280;48769;51.624;5.886;2023-05-18T06:42:55;102640.72;;;12.08;68.64
62708;BME280;48769;51.624;5.886;2023-05-18T06:45:20;102643.94;;;11.88;67.59
62708;BME280;48769;51.624;5.886;2023-05-18T06:47:46;102638.56;;;11.91;67.75
62708;BME280;48769;51.624;5.886;2023-05-18T06:50:12;102643.44;;;12.07;67.58
62708;BME280;48769;51.624;5.886;2023-05-18T06:52:37;102632.66;;;12.13;66.90
62708;BME280;48769;51.624;5.886;2023-05-18T06:55:03;102643.72;;;12.27;66.65
62708;BME280;48769;51.624;5.886;2023-05-18T06:57:29;102644.25;;;12.38;65.23
62708;BME280;48769;51.624;5.886;2023-05-18T06:59:56;102639.72;;;12.70;65.21
62708;BME280;48769;51.624;5.886;2023-05-18T07:02:21;102643.66;;;13.13;63.93
62708;BME280;48769;51.624;5.886;2023-05-18T07:04:47;102635.59;;;13.43;63.18
62708;BME280;48769;51.624;5.886;2023-05-18T07:07:13;102637.03;;;13.76;62.03
62708;BME280;48769;51.624;5.886;2023-05-18T07:09:39;102637.03;;;13.76;61.68
62708;BME280;48769;51.624;5.886;2023-05-18T07:12:07;102637.56;;;14.10;61.26
62708;BME280;48769;51.624;5.886;2023-05-18T07:14:32;102632.63;;;14.46;59.90
62708;BME280;48769;51.624;5.886;2023-05-18T07:16:58;102632.81;;;14.41;58.58
62708;BME280;48769;51.624;5.886;2023-05-18T07:19:26;102646.41;;;14.10;58.81
62708;BME280;48769;51.624;5.886;2023-05-18T07:21:51;102643.06;;;14.29;57.28
62708;BME280;48769;51.624;5.886;2023-05-18T07:24:17;102643.13;;;14.51;57.12
62708;BME280;48769;51.624;5.886;2023-05-18T07:26:42;102639.59;;;15.36;56.48
62708;BME280;48769;51.624;5.886;2023-05-18T07:29:07;102626.13;;;16.20;53.67
62708;BME280;48769;51.624;5.886;2023-05-18T07:31:33;102634.41;;;17.07;51.15
62708;BME280;48769;51.624;5.886;2023-05-18T07:34:02;102633.34;;;17.09;49.75
62708;BME280;48769;51.624;5.886;2023-05-18T07:36:28;102631.09;;;17.19;48.85
62708;BME280;48769;51.624;5.886;2023-05-18T07:38:53;102637.16;;;17.22;49.17
62708;BME280;48769;51.624;5.886;2023-05-18T07:41:19;102628.34;;;17.03;48.89
62708;BME280;48769;51.624;5.886;2023-05-18T07:43:44;102635.00;;;16.77;49.90
62708;BME280;48769;51.624;5.886;2023-05-18T07:46:10;102638.06;;;16.68;49.82
62708;BME280;48769;51.624;5.886;2023-05-18T07:48:35;102642.25;;;15.98;51.06
62708;BME280;48769;51.624;5.886;2023-05-18T07:51:00;102642.94;;;15.41;52.24
62708;BME280;48769;51.624;5.886;2023-05-18T07:53:26;102649.13;;;15.22;53.30
62708;BME280;48769;51.624;5.886;2023-05-18T07:55:51;102652.53;;;14.81;54.39
62708;BME280;48769;51.624;5.886;2023-05-18T07:58:16;102660.81;;;14.52;55.43
62708;BME280;48769;51.624;5.886;2023-05-18T08:00:42;102660.38;;;14.62;55.78
62708;BME280;48769;51.624;5.886;2023-05-18T08:03:08;102668.22;;;14.67;55.62
62708;BME280;48769;51.624;5.886;2023-05-18T08:05:33;102667.66;;;14.81;55.64
62708;BME280;48769;51.624;5.886;2023-05-18T08:07:59;102670.75;;;14.92;55.84
62708;BME280;48769;51.624;5.886;2023-05-18T08:10:24;102662.56;;;14.75;55.36
62708;BME280;48769;51.624;5.886;2023-05-18T08:12:50;102665.16;;;14.54;55.56
62708;BME280;48769;51.624;5.886;2023-05-18T08:15:16;102670.03;;;14.88;55.68
62708;BME280;48769;51.624;5.886;2023-05-18T08:17:42;102668.13;;;15.12;55.96
62708;BME280;48769;51.624;5.886;2023-05-18T08:20:08;102663.06;;;15.06;53.85
62708;BME280;48769;51.624;5.886;2023-05-18T08:22:34;102659.13;;;14.72;54.08
62708;BME280;48769;51.624;5.886;2023-05-18T08:24:59;102668.47;;;14.83;54.64
62708;BME280;48769;51.624;5.886;2023-05-18T08:27:25;102649.84;;;15.05;54.22
62708;BME280;48769;51.624;5.886;2023-05-18T08:29:50;102653.50;;;15.23;53.03
62708;BME280;48769;51.624;5.886;2023-05-18T08:32:15;102645.00;;;15.55;52.25
62708;BME280;48769;51.624;5.886;2023-05-18T08:34:41;102653.94;;;15.54;52.53
62708;BME280;48769;51.624;5.886;2023-05-18T08:37:06;102651.22;;;15.76;52.24
62708;BME280;48769;51.624;5.886;2023-05-18T08:39:32;102647.97;;;15.70;52.26
62708;BME280;48769;51.624;5.886;2023-05-18T08:42:01;102637.88;;;15.56;51.32
62708;BME280;48769;51.624;5.886;2023-05-18T08:44:37;102644.66;;;15.42;51.65
62708;BME280;48769;51.624;5.886;2023-05-18T08:47:08;102645.78;;;15.37;51.48
62708;BME280;48769;51.624;5.886;2023-05-18T08:49:34;102647.09;;;15.06;52.81
62708;BME280;48769;51.624;5.886;2023-05-18T08:52:03;102645.13;;;14.67;54.11
62708;BME280;48769;51.624;5.886;2023-05-18T08:54:30;102649.75;;;14.62;54.23
62708;BME280;48769;51.624;5.886;2023-05-18T08:56:56;102649.31;;;14.27;55.39
62708;BME280;48769;51.624;5.886;2023-05-18T08:59:25;102649.34;;;14.26;55.63
62708;BME280;48769;51.624;5.886;2023-05-18T09:01:51;102639.06;;;13.93;54.07
62708;BME280;48769;51.624;5.886;2023-05-18T09:04:20;102635.97;;;14.06;54.91
62708;BME280;48769;51.624;5.886;2023-05-18T09:06:47;102640.53;;;14.02;55.90
62708;BME280;48769;51.624;5.886;2023-05-18T09:09:13;102637.00;;;14.01;55.72
62708;BME280;48769;51.624;5.886;2023-05-18T09:11:38;102646.66;;;14.27;55.49
62708;BME280;48769;51.624;5.886;2023-05-18T09:14:04;102638.81;;;14.70;54.99
62708;BME280;48769;51.624;5.886;2023-05-18T09:16:29;102638.22;;;14.85;53.93
62708;BME280;48769;51.624;5.886;2023-05-18T09:18:56;102626.31;;;14.94;52.29
62708;BME280;48769;51.624;5.886;2023-05-18T09:21:21;102624.00;;;14.85;53.15
62708;BME280;48769;51.624;5.886;2023-05-18T09:23:47;102623.53;;;15.17;53.07
62708;BME280;48769;51.624;5.886;2023-05-18T09:26:12;102612.84;;;15.39;51.33
62708;BME280;48769;51.624;5.886;2023-05-18T09:28:39;102603.44;;;15.10;50.71
62708;BME280;48769;51.624;5.886;2023-05-18T09:31:07;102614.38;;;15.25;51.31
62708;BME280;48769;51.624;5.886;2023-05-18T09:33:37;102611.03;;;15.60;50.32
62708;BME280;48769;51.624;5.886;2023-05-18T09:36:04;102607.50;;;16.37;49.69
62708;BME280;48769;51.624;5.886;2023-05-18T09:38:30;102599.31;;;16.23;48.58
62708;BME280;48769;51.624;5.886;2023-05-18T09:40:55;102603.94;;;16.00;49.46
62708;BME280;48769;51.624;5.886;2023-05-18T09:43:20;102594.69;;;16.07;48.30
62708;BME280;48769;51.624;5.886;2023-05-18T09:45:48;102601.03;;;16.24;47.89
62708;BME280;48769;51.624;5.886;2023-05-18T09:48:15;102586.94;;;16.03;48.63
62708;BME280;48769;51.624;5.886;2023-05-18T09:50:42;102606.50;;;16.21;50.16
62708;BME280;48769;51.624;5.886;2023-05-18T09:53:08;102596.84;;;16.37;49.66
62708;BME280;48769;51.624;5.886;2023-05-18T09:55:45;102592.56;;;16.16;46.53
62708;BME280;48769;51.624;5.886;2023-05-18T09:58:11;102598.75;;;16.16;48.12
62708;BME280;48769;51.624;5.886;2023-05-18T10:00:40;102592.34;;;16.56;47.93
62708;BME280;48769;51.624;5.886;2023-05-18T10:03:19;102595.41;;;16.30;46.41
62708;BME280;48769;51.624;5.886;2023-05-18T10:05:45;102594.84;;;16.04;48.01
62708;BME280;48769;51.624;5.886;2023-05-18T10:08:12;102587.53;;;15.89;47.46
62708;BME280;48769;51.624;5.886;2023-05-18T10:10:38;102600.25;;;15.63;48.48
62708;BME280;48769;51.624;5.886;2023-05-18T10:13:05;102583.88;;;15.92;48.15
62708;BME280;48769;51.624;5.886;2023-05-18T10:15:30;102581.72;;;15.81;47.54
62708;BME280;48769;51.624;5.886;2023-05-18T10:17:58;102570.19;;;15.80;47.18
62708;BME280;48769;51.624;5.886;2023-05-18T10:20:24;102582.28;;;15.48;47.92
62708;BME280;48769;51.624;5.886;2023-05-18T10:22:51;102584.66;;;15.54;47.24
62708;BME280;48769;51.624;5.886;2023-05-18T10:25:20;102576.47;;;15.59;47.59
62708;BME280;48769;51.624;5.886;2023-05-18T10:27:50;102586.44;;;15.14;48.33
62708;BME280;48769;51.624;5.886;2023-05-18T10:30:17;102575.00;;;15.11;49.63
62708;BME280;48769;51.624;5.886;2023-05-18T10:32:44;102578.09;;;15.22;49.51
62708;BME280;48769;51.624;5.886;2023-05-18T10:35:10;102590.78;;;15.56;50.56
62708;BME280;48769;51.624;5.886;2023-05-18T10:37:38;102574.28;;;15.69;48.97
62708;BME280;48769;51.624;5.886;2023-05-18T10:40:05;102577.88;;;15.68;48.97
62708;BME280;48769;51.624;5.886;2023-05-18T10:42:32;102577.19;;;15.62;49.52
62708;BME280;48769;51.624;5.886;2023-05-18T10:44:57;102576.13;;;15.87;49.00
62708;BME280;48769;51.624;5.886;2023-05-18T10:47:26;102567.59;;;15.79;48.12
62708;BME280;48769;51.624;5.886;2023-05-18T10:49:52;102558.41;;;15.65;48.26
62708;BME280;48769;51.624;5.886;2023-05-18T10:52:18;102564.66;;;15.64;48.54
62708;BME280;48769;51.624;5.886;2023-05-18T10:54:45;102560.75;;;15.73;48.93
62708;BME280;48769;51.624;5.886;2023-05-18T10:57:14;102557.06;;;15.76;48.66
62708;BME280;48769;51.624;5.886;2023-05-18T10:59:42;102560.16;;;15.46;48.25
62708;BME280;48769;51.624;5.886;2023-05-18T11:02:09;102564.88;;;15.60;48.73
62708;BME280;48769;51.624;5.886;2023-05-18T11:04:38;102568.56;;;15.57;48.64
62708;BME280;48769;51.624;5.886;2023-05-18T11:07:09;102547.09;;;15.60;47.44
62708;BME280;48769;51.624;5.886;2023-05-18T11:09:35;102549.50;;;15.85;47.73
62708;BME280;48769;51.624;5.886;2023-05-18T11:12:00;102547.28;;;15.95;47.48
62708;BME280;48769;51.624;5.886;2023-05-18T11:14:29;102545.34;;;15.80;47.00
62708;BME280;48769;51.624;5.886;2023-05-18T11:17:15;102551.03;;;16.10;47.33
62708;BME280;48769;51.624;5.886;2023-05-18T11:22:44;102551.03;;;16.10;48.40
62708;BME280;48769;51.624;5.886;2023-05-18T11:28:00;102551.28;;;16.05;47.82
62708;BME280;48769;51.624;5.886;2023-05-18T11:33:13;102546.22;;;15.99;48.68
62708;BME280;48769;51.624;5.886;2023-05-18T11:36:11;102539.28;;;16.50;49.72
62708;BME280;48769;51.624;5.886;2023-05-18T11:41:36;102536.47;;;16.53;48.01
62708;BME280;48769;51.624;5.886;2023-05-18T11:44:22;102530.53;;;16.48;46.43
62708;BME280;48769;51.624;5.886;2023-05-18T11:46:58;102527.22;;;16.60;46.57
62708;BME280;48769;51.624;5.886;2023-05-18T11:49:25;102530.13;;;16.73;46.77
62708;BME280;48769;51.624;5.886;2023-05-18T11:54:25;102527.34;;;16.40;44.60
62708;BME280;48769;51.624;5.886;2023-05-18T11:56:51;102526.53;;;16.21;45.45
62708;BME280;48769;51.624;5.886;2023-05-18T11:59:38;102511.75;;;16.50;44.43
62708;BME280;48769;51.624;5.886;2023-05-18T12:02:04;102519.22;;;16.60;45.20
62708;BME280;48769;51.624;5.886;2023-05-18T12:04:30;102515.63;;;16.62;46.12
62708;BME280;48769;51.624;5.886;2023-05-18T12:06:57;102510.91;;;16.49;45.96
62708;BME280;48769;51.624;5.886;2023-05-18T12:09:24;102509.63;;;16.39;46.64
62708;BME280;48769;51.624;5.886;2023-05-18T12:11:50;102507.41;;;16.30;46.61
62708;BME280;48769;51.624;5.886;2023-05-18T12:14:17;102513.75;;;16.27;46.72
62708;BME280;48769;51.624;5.886;2023-05-18T12:16:43;102516.63;;;16.05;47.30
62708;BME280;48769;51.624;5.886;2023-05-18T12:19:10;102511.34;;;16.04;46.54
62708;BME280;48769;51.624;5.886;2023-05-18T12:21:36;102509.38;;;16.07;46.25
62708;BME280;48769;51.624;5.886;2023-05-18T12:24:02;102513.75;;;16.27;47.23
62708;BME280;48769;51.624;5.886;2023-05-18T12:26:28;102507.22;;;16.52;46.39
62708;BME280;48769;51.624;5.886;2023-05-18T12:28:54;102502.09;;;16.47;46.20
62708;BME280;48769;51.624;5.886;2023-05-18T12:31:20;102509.38;;;16.44;46.81
62708;BME280;48769;51.624;5.886;2023-05-18T12:33:45;102505.94;;;16.42;47.16
62708;BME280;48769;51.624;5.886;2023-05-18T12:36:14;102499.63;;;16.62;46.02
62708;BME280;48769;51.624;5.886;2023-05-18T12:38:39;102493.81;;;16.71;46.39
62708;BME280;48769;51.624;5.886;2023-05-18T12:41:05;102497.53;;;16.86;45.81
62708;BME280;48769;51.624;5.886;2023-05-18T12:43:35;102486.69;;;16.89;45.35
62708;BME280;48769;51.624;5.886;2023-05-18T12:46:01;102501.06;;;17.03;45.84
62708;BME280;48769;51.624;5.886;2023-05-18T12:48:27;102497.34;;;16.89;45.17
62708;BME280;48769;51.624;5.886;2023-05-18T12:50:54;102496.88;;;16.98;45.15
62708;BME280;48769;51.624;5.886;2023-05-18T12:53:20;102500.34;;;17.00;45.77
62708;BME280;48769;51.624;5.886;2023-05-18T12:55:55;102505.88;;;17.30;46.36
62708;BME280;48769;51.624;5.886;2023-05-18T12:58:21;102491.06;;;17.07;46.07
62708;BME280;48769;51.624;5.886;2023-05-18T13:00:47;102500.47;;;17.14;46.35
62708;BME280;48769;51.624;5.886;2023-05-18T13:03:17;102493.31;;;17.15;44.81
62708;BME280;48769;51.624;5.886;2023-05-18T13:05:45;102487.59;;;16.70;44.22
62708;BME280;48769;51.624;5.886;2023-05-18T13:08:25;102485.59;;;16.75;46.15
62708;BME280;48769;51.624;5.886;2023-05-18T13:10:50;102485.28;;;16.81;45.00